Time;durP1;ratioP1;P1;durP2;ratioP2;P2;SDS_P1;SDS_P2;PMS_P1;PMS_P2;Temp;Humidity;BMP_temperature;BMP_pressure;BME280_temperature;BME280_humidity;BME280_pressure;Samples;Min_cycle;Max_cycle;Signal;HPM_P1;HPM_P2
2021/09/21 04:01:44;;;;;;;53.40;13.77;;;13.30;99.70;;;;;;5050445;28;20288;-64
2021/09/21 04:04:10;;;;;;;52.80;14.33;;;13.30;99.70;;;;;;5050428;28;20205;-64
2021/09/21 04:06:37;;;;;;;52.77;13.70;;;13.30;99.70;;;;;;5050248;28;20981;-64
2021/09/21 04:09:04;;;;;;;54.27;15.27;;;13.30;99.70;;;;;;5049821;28;20452;-64
2021/09/21 04:11:31;;;;;;;53.17;14.07;;;13.20;99.70;;;;;;5049825;28;20558;-64
2021/09/21 04:13:57;;;;;;;53.50;14.07;;;13.10;99.70;;;;;;5050074;28;20541;-64
2021/09/21 04:16:24;;;;;;;54.87;14.00;;;13.10;99.70;;;;;;5050028;28;20443;-63
2021/09/21 04:18:52;;;;;;;55.60;18.40;;;13.10;99.70;;;;;;5049812;28;20969;-64
2021/09/21 04:21:19;;;;;;;55.87;14.77;;;13.20;99.70;;;;;;5049637;28;20455;-64
2021/09/21 04:23:45;;;;;;;52.80;14.33;;;13.10;99.70;;;;;;5050015;28;20935;-64
2021/09/21 04:26:12;;;;;;;53.03;16.30;;;13.10;99.70;;;;;;5049895;28;20935;-64
2021/09/21 04:28:40;;;;;;;55.17;17.03;;;13.10;99.70;;;;;;5049754;28;20887;-65
2021/09/21 04:31:10;;;;;;;56.07;15.90;;;13.10;99.70;;;;;;5049737;28;20478;-64
2021/09/21 04:33:39;;;;;;;54.37;13.90;;;13.10;99.70;;;;;;5050970;28;20484;-63
2021/09/21 04:36:08;;;;;;;52.53;12.93;;;12.90;99.70;;;;;;5049796;28;20451;-62
2021/09/21 04:38:35;;;;;;;53.57;14.00;;;13.00;99.70;;;;;;5049552;28;20730;-63
2021/09/21 04:41:03;;;;;;;55.90;13.77;;;13.00;99.70;;;;;;5049924;28;20444;-63
2021/09/21 04:43:30;;;;;;;56.53;13.90;;;13.10;99.70;;;;;;5046481;28;20497;-62
2021/09/21 04:45:57;;;;;;;52.93;13.63;;;13.00;99.70;;;;;;5049377;28;20656;-64
2021/09/21 04:48:24;;;;;;;54.77;15.90;;;13.00;99.70;;;;;;5048602;28;20447;-64
2021/09/21 04:50:51;;;;;;;55.43;16.17;;;13.00;99.70;;;;;;5049463;28;20439;-64
2021/09/21 04:53:19;;;;;;;59.73;20.50;;;13.10;99.70;;;;;;5048924;28;20502;-64
2021/09/21 04:55:46;;;;;;;53.20;12.43;;;13.10;99.70;;;;;;5049770;28;20439;-64
2021/09/21 04:58:12;;;;;;;56.33;17.90;;;13.10;99.70;;;;;;5049109;28;20451;-63
2021/09/21 05:00:39;;;;;;;54.77;16.00;;;13.20;99.70;;;;;;5043827;28;20444;-63
2021/09/21 05:03:06;;;;;;;57.20;17.40;;;13.10;99.70;;;;;;5048368;28;20475;-64
2021/09/21 05:05:33;;;;;;;52.97;15.57;;;13.00;99.70;;;;;;5049624;28;20439;-65
2021/09/21 05:08:02;;;;;;;55.20;16.87;;;12.90;99.70;;;;;;5052663;28;20827;-64
2021/09/21 05:10:32;;;;;;;57.73;14.27;;;12.90;99.70;;;;;;5051528;28;20992;-61
2021/09/21 05:12:58;;;;;;;55.67;15.40;;;12.90;99.70;;;;;;5050953;28;20537;-65
2021/09/21 05:15:25;;;;;;;57.33;18.77;;;12.90;99.70;;;;;;5051866;28;20483;-62
2021/09/21 05:17:52;;;;;;;56.60;18.43;;;12.90;99.70;;;;;;5049764;28;20470;-64
2021/09/21 05:20:19;;;;;;;57.47;21.40;;;12.80;99.70;;;;;;5049381;28;20451;-62
2021/09/21 05:22:50;;;;;;;58.70;21.70;;;12.80;99.70;;;;;;5050103;28;20459;-66
2021/09/21 05:25:17;;;;;;;56.00;15.00;;;12.80;99.70;;;;;;5052933;28;20831;-65
2021/09/21 05:27:45;;;;;;;53.40;14.83;;;13.10;99.70;;;;;;5053039;28;20462;-65
2021/09/21 05:30:13;;;;;;;58.30;15.00;;;13.00;99.70;;;;;;5045682;28;20839;-64
2021/09/21 05:32:40;;;;;;;58.57;14.93;;;13.00;99.70;;;;;;5052600;28;20463;-65
2021/09/21 05:35:08;;;;;;;54.80;15.67;;;12.90;99.70;;;;;;5052557;28;20854;-65
2021/09/21 05:37:35;;;;;;;60.33;16.40;;;12.80;99.70;;;;;;5052442;28;20451;-66
2021/09/21 05:40:02;;;;;;;57.73;20.30;;;12.80;99.70;;;;;;5043401;28;20931;-64
2021/09/21 05:42:29;;;;;;;61.47;18.27;;;12.80;99.70;;;;;;5041255;28;20462;-62
2021/09/21 05:44:57;;;;;;;57.87;21.00;;;12.90;99.70;;;;;;5042475;28;20436;-63
2021/09/21 05:47:24;;;;;;;60.17;24.03;;;12.80;99.70;;;;;;5040015;28;20436;-64
2021/09/21 05:49:50;;;;;;;66.90;32.87;;;12.80;99.70;;;;;;5041523;28;20493;-65
2021/09/21 05:52:17;;;;;;;59.10;20.80;;;12.80;99.70;;;;;;5039193;28;20983;-65
2021/09/21 05:54:44;;;;;;;60.00;22.27;;;12.80;99.70;;;;;;5037260;28;20482;-65
2021/09/21 05:57:10;;;;;;;62.60;23.87;;;12.80;99.70;;;;;;5041752;28;20444;-64
2021/09/21 05:59:37;;;;;;;63.60;24.93;;;12.80;99.70;;;;;;5040583;28;20444;-64
2021/09/21 06:02:05;;;;;;;63.20;21.63;;;12.70;99.70;;;;;;5040191;28;20467;-63
2021/09/21 06:04:33;;;;;;;59.70;21.73;;;12.80;99.70;;;;;;5040018;28;20959;-64
2021/09/21 06:07:03;;;;;;;63.60;22.63;;;12.80;99.70;;;;;;5040925;28;20444;-64
2021/09/21 06:09:30;;;;;;;62.60;22.67;;;12.80;99.70;;;;;;5041618;28;20432;-64
2021/09/21 06:11:57;;;;;;;64.73;21.37;;;12.90;99.70;;;;;;5040972;28;20495;-61
2021/09/21 06:14:23;;;;;;;64.33;22.33;;;12.90;99.70;;;;;;5051817;28;20835;-62
2021/09/21 06:16:50;;;;;;;61.73;22.57;;;12.80;99.70;;;;;;5052178;28;20502;-64
2021/09/21 06:19:18;;;;;;;64.63;28.20;;;12.70;99.70;;;;;;5051604;28;20455;-63
2021/09/21 06:21:45;;;;;;;65.97;27.87;;;12.90;99.70;;;;;;5051488;28;21056;-64
2021/09/21 06:24:11;;;;;;;68.17;33.90;;;12.80;99.70;;;;;;5051681;28;20475;-63
2021/09/21 06:26:38;;;;;;;64.10;22.20;;;13.10;99.70;;;;;;5052046;28;20455;-62
2021/09/21 06:29:05;;;;;;;66.97;20.37;;;13.10;99.70;;;;;;5051443;28;20938;-60
2021/09/21 06:31:31;;;;;;;66.43;21.60;;;12.90;99.70;;;;;;5051438;28;20529;-63
2021/09/21 06:33:58;;;;;;;64.50;25.77;;;12.80;99.70;;;;;;5050989;28;20452;-62
2021/09/21 06:36:26;;;;;;;62.20;22.63;;;12.80;99.70;;;;;;5051843;28;20452;-61
2021/09/21 06:38:53;;;;;;;60.47;20.13;;;12.90;99.70;;;;;;5051620;28;20451;-63
2021/09/21 06:41:19;;;;;;;63.27;19.90;;;12.90;99.70;;;;;;5051194;28;20456;-62
2021/09/21 06:43:46;;;;;;;64.20;22.40;;;12.90;99.70;;;;;;5045589;28;20464;-63
2021/09/21 06:46:13;;;;;;;65.43;27.33;;;13.00;99.70;;;;;;5037902;28;20457;-63
2021/09/21 06:48:40;;;;;;;59.53;18.10;;;13.30;99.70;;;;;;5033797;28;20432;-63
2021/09/21 06:51:07;;;;;;;62.00;22.97;;;13.40;99.70;;;;;;5050504;28;20476;-63
2021/09/21 06:53:35;;;;;;;61.77;22.50;;;13.50;99.70;;;;;;5051312;28;20957;-64
2021/09/21 06:56:03;;;;;;;61.57;18.53;;;13.70;99.70;;;;;;5051060;28;20484;-63
2021/09/21 06:58:30;;;;;;;61.43;20.00;;;13.80;99.70;;;;;;5047406;28;20447;-64
2021/09/21 07:00:56;;;;;;;59.00;16.67;;;14.10;99.70;;;;;;5050829;28;20452;-61
2021/09/21 07:03:23;;;;;;;57.60;17.40;;;14.30;99.70;;;;;;5051074;28;20463;-64
2021/09/21 07:05:50;;;;;;;60.23;16.60;;;14.30;99.70;;;;;;5042673;28;20441;-63
2021/09/21 07:08:18;;;;;;;60.30;14.93;;;14.40;99.70;;;;;;5030859;28;20456;-64
2021/09/21 07:10:46;;;;;;;57.13;13.83;;;14.40;99.70;;;;;;5030899;28;20876;-60
2021/09/21 07:13:13;;;;;;;58.23;15.87;;;14.50;99.70;;;;;;5030708;28;20476;-64
2021/09/21 07:15:40;;;;;;;54.40;14.80;;;14.50;99.70;;;;;;5031107;28;20488;-63
2021/09/21 07:18:06;;;;;;;56.17;14.07;;;14.50;99.70;;;;;;5030793;28;20456;-63
2021/09/21 07:20:33;;;;;;;57.33;14.77;;;14.50;99.70;;;;;;5030361;28;20445;-61
2021/09/21 07:23:00;;;;;;;57.60;15.10;;;14.40;99.70;;;;;;5030197;28;20850;-64
2021/09/21 07:25:27;;;;;;;57.30;14.80;;;14.30;99.70;;;;;;5030669;28;20866;-64
2021/09/21 07:27:57;;;;;;;56.10;14.93;;;14.30;99.70;;;;;;5030395;28;20453;-63
2021/09/21 07:30:23;;;;;;;58.13;14.73;;;14.30;99.70;;;;;;5029966;28;20506;-63
2021/09/21 07:32:50;;;;;;;56.83;14.97;;;14.40;99.70;;;;;;5030557;28;20472;-63
2021/09/21 07:35:17;;;;;;;60.37;15.63;;;14.50;99.70;;;;;;5030178;28;20480;-63
2021/09/21 07:37:44;;;;;;;57.50;16.10;;;14.50;99.70;;;;;;5031011;28;20445;-62
2021/09/21 07:40:11;;;;;;;54.00;15.03;;;14.60;99.70;;;;;;5030120;28;20449;-63
2021/09/21 07:42:39;;;;;;;55.53;15.43;;;14.70;99.70;;;;;;5030550;28;20885;-63
2021/09/21 07:45:09;;;;;;;54.33;12.90;;;14.90;99.70;;;;;;5045683;28;20451;-63
2021/09/21 07:47:36;;;;;;;52.10;11.67;;;15.10;99.70;;;;;;5050394;28;20444;-63
2021/09/21 07:50:03;;;;;;;51.10;10.80;;;15.30;99.70;;;;;;5049786;28;20443;-63
2021/09/21 07:52:30;;;;;;;60.77;13.87;;;15.70;99.70;;;;;;5049891;28;20464;-61
2021/09/21 07:54:57;;;;;;;51.47;11.63;;;15.80;99.70;;;;;;5049811;28;20486;-65
2021/09/21 07:57:23;;;;;;;49.20;10.03;;;15.90;99.70;;;;;;5050248;28;20850;-64
2021/09/21 07:59:50;;;;;;;49.47;10.50;;;15.90;99.70;;;;;;5049480;28;20452;-64
2021/09/21 08:02:18;;;;;;;49.23;9.80;;;15.80;99.70;;;;;;5049988;28;20463;-64
2021/09/21 08:04:45;;;;;;;50.47;9.87;;;15.70;99.70;;;;;;5049828;28;20439;-64
2021/09/21 08:07:12;;;;;;;49.60;9.90;;;15.60;99.70;;;;;;5049949;28;20444;-63
2021/09/21 08:09:39;;;;;;;50.50;9.90;;;15.80;99.70;;;;;;5049464;28;20455;-63
2021/09/21 08:12:06;;;;;;;51.10;10.83;;;15.70;99.70;;;;;;5049219;28;20861;-63
2021/09/21 08:14:37;;;;;;;49.40;10.40;;;15.60;99.70;;;;;;5049562;28;20479;-63
2021/09/21 08:17:05;;;;;;;50.13;9.23;;;15.60;99.70;;;;;;5049797;28;20483;-63
2021/09/21 08:19:33;;;;;;;51.00;10.00;;;15.60;99.70;;;;;;5049560;28;20452;-62
2021/09/21 08:22:00;;;;;;;50.20;10.20;;;15.50;99.70;;;;;;5048823;28;20468;-63
2021/09/21 08:24:27;;;;;;;49.60;10.00;;;15.50;99.70;;;;;;5049608;28;20444;-63
2021/09/21 08:26:53;;;;;;;47.70;9.10;;;15.40;99.70;;;;;;5049633;28;20526;-63
2021/09/21 08:29:20;;;;;;;47.90;9.20;;;15.40;99.70;;;;;;5049695;28;20448;-61
2021/09/21 08:31:47;;;;;;;51.60;9.73;;;15.30;99.70;;;;;;5049399;28;20476;-63
2021/09/21 08:34:14;;;;;;;47.00;8.83;;;15.20;99.70;;;;;;5049527;28;20471;-61
2021/09/21 08:36:42;;;;;;;48.03;10.30;;;15.30;99.70;;;;;;5049547;28;20487;-63
2021/09/21 08:39:08;;;;;;;48.77;9.70;;;15.50;99.70;;;;;;5048936;28;20451;-65
2021/09/21 08:41:36;;;;;;;49.87;9.80;;;15.50;99.70;;;;;;5051035;28;20523;-63
2021/09/21 08:44:04;;;;;;;48.47;9.83;;;15.50;99.70;;;;;;5053379;28;20789;-62
2021/09/21 08:46:31;;;;;;;49.20;11.03;;;15.70;99.70;;;;;;5053776;28;20923;-63
2021/09/21 08:48:57;;;;;;;45.50;9.67;;;15.70;99.70;;;;;;5053408;28;20459;-62
2021/09/21 08:51:24;;;;;;;47.40;9.57;;;15.60;99.70;;;;;;5053458;28;20867;-62
2021/09/21 08:53:52;;;;;;;48.70;9.87;;;15.50;99.70;;;;;;5053228;28;20932;-63
2021/09/21 08:56:20;;;;;;;48.23;9.70;;;15.40;99.70;;;;;;5053276;28;20498;-63
2021/09/21 08:58:57;;;;;;;46.80;9.37;;;15.50;99.70;;;;;;5052949;28;20455;-64
2021/09/21 09:01:23;;;;;;;50.03;10.60;;;15.40;99.70;;;;;;5053219;28;20951;-63
2021/09/21 09:03:55;;;;;;;47.87;9.77;;;15.60;99.70;;;;;;5053236;28;20448;-63
2021/09/21 09:06:22;;;;;;;47.10;9.57;;;15.60;99.70;;;;;;5053252;28;20440;-62
2021/09/21 09:08:48;;;;;;;45.47;8.40;;;15.70;99.70;;;;;;5053171;28;20470;-63
2021/09/21 09:11:20;;;;;;;46.97;9.80;;;15.60;99.70;;;;;;5052761;28;20443;-63
2021/09/21 09:13:53;;;;;;;47.30;9.77;;;15.70;99.70;;;;;;5053412;28;20870;-63
2021/09/21 09:16:21;;;;;;;49.23;11.63;;;15.60;99.70;;;;;;5052989;28;20487;-62
2021/09/21 09:18:49;;;;;;;48.77;9.90;;;15.60;99.70;;;;;;5053144;28;20477;-63
2021/09/21 09:21:16;;;;;;;49.33;11.00;;;15.70;99.70;;;;;;5052103;28;20447;-63
2021/09/21 09:23:52;;;;;;;48.00;10.50;;;15.90;99.70;;;;;;5053086;28;20454;-63
2021/09/21 09:26:24;;;;;;;45.00;9.80;;;16.60;99.70;;;;;;5052672;28;20439;-63
2021/09/21 09:28:53;;;;;;;45.97;9.53;;;17.00;99.70;;;;;;5052826;28;20444;-64
2021/09/21 09:31:25;;;;;;;46.90;11.03;;;16.50;99.70;;;;;;5052307;28;20443;-64
2021/09/21 09:33:52;;;;;;;45.83;8.87;;;16.30;99.70;;;;;;5052445;28;20450;-63
2021/09/21 09:36:22;;;;;;;47.57;8.63;;;16.10;99.70;;;;;;5052287;28;20483;-64
2021/09/21 09:38:59;;;;;;;46.07;8.83;;;16.70;99.70;;;;;;5052343;28;20930;-63
2021/09/21 09:41:36;;;;;;;45.87;8.70;;;17.00;99.70;;;;;;5052404;28;20767;-63
2021/09/21 09:44:07;;;;;;;44.67;9.63;;;17.30;99.70;;;;;;5045380;28;20896;-64
2021/09/21 09:46:45;;;;;;;45.70;8.67;;;17.20;99.70;;;;;;5032678;28;20461;-64
2021/09/21 09:49:12;;;;;;;48.37;9.47;;;17.10;99.70;;;;;;5032211;28;20440;-64
2021/09/21 09:51:45;;;;;;;43.73;8.20;;;16.90;99.70;;;;;;5032193;28;20484;-64
2021/09/21 09:54:11;;;;;;;45.80;8.80;;;17.00;99.70;;;;;;5032330;28;20870;-64
2021/09/21 09:56:40;;;;;;;44.80;9.20;;;17.10;99.70;;;;;;5032386;28;21121;-64
2021/09/21 09:59:08;;;;;;;45.30;10.00;;;17.20;98.70;;;;;;5031933;28;20448;-63
2021/09/21 10:01:35;;;;;;;45.00;8.60;;;17.00;99.70;;;;;;5032294;28;20471;-63
2021/09/21 10:04:02;;;;;;;44.37;8.70;;;16.90;99.70;;;;;;5032137;28;20440;-63
2021/09/21 10:06:30;;;;;;;48.00;9.00;;;16.70;99.70;;;;;;5032242;28;21000;-64
2021/09/21 10:08:57;;;;;;;46.73;9.90;;;16.80;99.70;;;;;;5031700;28;20752;-61
2021/09/21 10:11:25;;;;;;;46.50;9.90;;;16.60;99.70;;;;;;5031898;28;20449;-63
2021/09/21 10:13:53;;;;;;;46.77;9.80;;;16.40;99.70;;;;;;5031839;28;20452;-64
2021/09/21 10:16:21;;;;;;;47.13;9.53;;;16.40;99.70;;;;;;5031925;28;20483;-63
2021/09/21 10:18:54;;;;;;;48.30;10.97;;;16.40;99.70;;;;;;5031620;28;20451;-63
2021/09/21 10:21:31;;;;;;;48.90;11.43;;;16.30;99.70;;;;;;5031283;28;20452;-64
2021/09/21 10:24:02;;;;;;;47.83;11.40;;;16.30;99.70;;;;;;5032022;28;20947;-63
2021/09/21 10:26:30;;;;;;;47.57;11.63;;;16.20;99.70;;;;;;5031631;28;20503;-62
2021/09/21 10:28:58;;;;;;;46.97;10.93;;;16.40;99.70;;;;;;5031653;28;20449;-63
2021/09/21 10:31:26;;;;;;;47.90;9.90;;;16.30;98.60;;;;;;5031236;28;20461;-62
2021/09/21 10:33:53;;;;;;;48.50;9.87;;;16.30;99.70;;;;;;5032579;28;20472;-62
2021/09/21 10:36:22;;;;;;;47.20;10.10;;;16.10;99.70;;;;;;5031843;28;20472;-63
2021/09/21 10:38:57;;;;;;;47.13;9.90;;;16.20;99.30;;;;;;5031865;28;20437;-61
2021/09/21 10:41:23;;;;;;;45.67;10.73;;;16.20;99.70;;;;;;5031477;28;20447;-63
2021/09/21 10:44:01;;;;;;;48.50;10.77;;;16.30;99.70;;;;;;5036949;28;20456;-62
2021/09/21 10:46:29;;;;;;;47.43;12.20;;;16.20;99.70;;;;;;5051400;28;20435;-63
2021/09/21 10:49:01;;;;;;;48.07;12.23;;;16.40;99.70;;;;;;5051482;28;20931;-61
2021/09/21 10:51:30;;;;;;;49.20;12.27;;;16.50;99.70;;;;;;5051097;28;20967;-63
2021/09/21 10:54:03;;;;;;;48.13;11.20;;;16.30;99.70;;;;;;5051564;28;20446;-64
2021/09/21 10:56:29;;;;;;;48.37;12.30;;;16.30;99.70;;;;;;5051119;28;20487;-63
2021/09/21 10:58:59;;;;;;;49.33;11.50;;;16.30;99.70;;;;;;5051394;28;20783;-63
2021/09/21 11:01:25;;;;;;;48.87;11.03;;;16.30;99.70;;;;;;5051318;28;20970;-63
2021/09/21 11:03:52;;;;;;;47.60;9.90;;;16.30;99.70;;;;;;5050434;28;20436;-62
2021/09/21 11:06:19;;;;;;;47.37;10.80;;;16.20;99.70;;;;;;5051233;28;20455;-63
2021/09/21 11:08:48;;;;;;;49.00;10.70;;;16.30;99.70;;;;;;5050712;28;20450;-63
2021/09/21 11:11:16;;;;;;;46.90;10.73;;;16.40;99.70;;;;;;5050740;28;20463;-63
2021/09/21 11:13:43;;;;;;;48.87;12.10;;;16.50;99.70;;;;;;5050469;28;20542;-61
2021/09/21 11:16:13;;;;;;;49.40;13.00;;;16.40;99.70;;;;;;5051050;28;20576;-64
2021/09/21 11:18:42;;;;;;;49.47;13.10;;;16.40;99.70;;;;;;5050575;28;20443;-63
2021/09/21 11:21:11;;;;;;;47.73;11.00;;;16.30;99.70;;;;;;5050429;28;20548;-63
2021/09/21 11:23:40;;;;;;;48.57;9.97;;;16.30;99.70;;;;;;5050629;28;20517;-63
2021/09/21 11:26:08;;;;;;;47.00;9.90;;;16.50;99.70;;;;;;5050707;28;20939;-62
2021/09/21 11:28:38;;;;;;;46.87;10.50;;;16.60;99.70;;;;;;5050310;28;20455;-63
2021/09/21 11:31:05;;;;;;;51.17;11.90;;;16.80;99.70;;;;;;5050669;28;20444;-62
2021/09/21 11:33:35;;;;;;;47.67;11.40;;;16.70;99.70;;;;;;5037919;28;20453;-64
2021/09/21 11:36:06;;;;;;;49.10;10.73;;;16.80;99.70;;;;;;5030743;28;20486;-64
2021/09/21 11:38:35;;;;;;;48.77;10.73;;;16.90;99.70;;;;;;5030481;28;20866;-64
2021/09/21 11:41:02;;;;;;;48.43;11.40;;;16.80;99.70;;;;;;5030022;28;20441;-64
2021/09/21 11:43:30;;;;;;;47.07;11.23;;;16.80;99.70;;;;;;5032591;28;20456;-62
2021/09/21 11:45:57;;;;;;;47.67;11.27;;;16.80;99.70;;;;;;5050020;28;20450;-64
2021/09/21 11:48:25;;;;;;;48.03;11.23;;;16.70;99.70;;;;;;5050045;28;20765;-63
2021/09/21 11:50:54;;;;;;;45.80;9.63;;;16.50;99.70;;;;;;5034649;28;20459;-63
2021/09/21 11:53:23;;;;;;;50.83;11.50;;;16.50;99.70;;;;;;5030104;28;21011;-63
2021/09/21 11:55:53;;;;;;;45.97;9.10;;;16.60;99.70;;;;;;5030101;28;20580;-64
2021/09/21 11:58:25;;;;;;;47.90;10.80;;;16.60;99.70;;;;;;5030172;28;20456;-63
2021/09/21 12:00:53;;;;;;;47.77;10.23;;;16.50;99.70;;;;;;5030122;28;20447;-61
2021/09/21 12:03:22;;;;;;;47.93;10.20;;;16.50;99.70;;;;;;5029921;28;20475;-64
2021/09/21 12:05:51;;;;;;;48.87;12.60;;;16.40;99.70;;;;;;5031577;28;20540;-63
2021/09/21 12:08:22;;;;;;;48.23;10.67;;;16.50;99.70;;;;;;5029690;28;20452;-63
2021/09/21 12:10:52;;;;;;;46.60;9.50;;;16.70;99.70;;;;;;5030047;28;20448;-62
2021/09/21 12:13:20;;;;;;;47.00;9.57;;;16.80;99.70;;;;;;5029865;28;20472;-63
2021/09/21 12:15:50;;;;;;;47.63;10.63;;;16.80;99.70;;;;;;5029768;28;20444;-63
2021/09/21 12:18:17;;;;;;;48.07;10.33;;;16.70;99.70;;;;;;5029839;28;20448;-63
2021/09/21 12:20:51;;;;;;;49.90;12.27;;;16.70;99.70;;;;;;5029312;28;20449;-63
2021/09/21 12:23:23;;;;;;;49.10;10.60;;;16.70;99.70;;;;;;5029515;28;21025;-63
2021/09/21 12:25:53;;;;;;;48.60;9.10;;;16.60;99.70;;;;;;5031033;28;20449;-64
2021/09/21 12:28:25;;;;;;;50.17;9.70;;;16.60;99.70;;;;;;5029776;28;20440;-62
2021/09/21 12:30:51;;;;;;;48.00;11.80;;;16.70;99.70;;;;;;5029533;28;20445;-65
2021/09/21 12:33:18;;;;;;;47.40;10.30;;;16.50;99.70;;;;;;5032027;28;20491;-63
2021/09/21 12:35:47;;;;;;;48.87;9.40;;;16.30;99.70;;;;;;5036686;28;20948;-63
2021/09/21 12:38:15;;;;;;;51.73;10.30;;;16.40;99.70;;;;;;5049391;28;20832;-63
2021/09/21 12:40:53;;;;;;;47.90;10.30;;;16.30;99.70;;;;;;5036942;28;20467;-63
2021/09/21 12:43:21;;;;;;;47.53;11.03;;;16.30;99.70;;;;;;5030691;28;20495;-64
2021/09/21 12:45:50;;;;;;;49.47;10.90;;;16.30;99.70;;;;;;5048590;28;20784;-60
2021/09/21 12:48:17;;;;;;;47.17;10.07;;;16.30;99.70;;;;;;5045495;28;20440;-63
2021/09/21 12:50:44;;;;;;;47.03;9.43;;;16.50;99.70;;;;;;5034714;28;20447;-64
2021/09/21 12:53:19;;;;;;;45.63;10.17;;;16.60;99.70;;;;;;5037827;28;20468;-63
2021/09/21 12:55:46;;;;;;;47.73;11.50;;;16.80;99.70;;;;;;5029368;28;20443;-63
2021/09/21 12:58:14;;;;;;;47.33;10.80;;;16.80;99.70;;;;;;5029859;28;20441;-63
2021/09/21 13:00:42;;;;;;;50.70;10.70;;;16.90;99.70;;;;;;5030399;28;20499;-62
2021/09/21 13:03:09;;;;;;;48.87;10.63;;;16.90;99.70;;;;;;5034290;28;20460;-62
2021/09/21 13:05:38;;;;;;;48.30;10.70;;;16.90;99.70;;;;;;5030592;28;20863;-64
2021/09/21 13:08:06;;;;;;;48.90;10.67;;;16.90;99.70;;;;;;5038305;28;20943;-63
2021/09/21 13:10:33;;;;;;;48.90;11.30;;;17.00;98.70;;;;;;5048119;28;20446;-65
2021/09/21 13:13:02;;;;;;;47.00;9.80;;;16.90;99.70;;;;;;5048416;28;20479;-64
2021/09/21 13:15:32;;;;;;;47.20;10.00;;;16.90;99.70;;;;;;5049332;28;20444;-63
2021/09/21 13:17:59;;;;;;;48.77;10.60;;;16.90;99.70;;;;;;5048940;28;20479;-62
2021/09/21 13:20:28;;;;;;;49.60;9.90;;;16.90;99.70;;;;;;5048909;28;20447;-64
2021/09/21 13:22:55;;;;;;;47.73;11.17;;;16.80;99.70;;;;;;5049100;28;20459;-63
2021/09/21 13:25:23;;;;;;;47.40;10.43;;;16.90;99.70;;;;;;5049284;28;20431;-63
2021/09/21 13:27:51;;;;;;;48.30;10.30;;;16.80;99.70;;;;;;5051091;28;20445;-63
2021/09/21 13:30:20;;;;;;;48.60;11.87;;;16.90;99.70;;;;;;5050757;28;20452;-63
2021/09/21 13:32:49;;;;;;;47.33;10.93;;;16.80;99.70;;;;;;5053029;28;20460;-64
2021/09/21 13:35:18;;;;;;;47.50;10.80;;;16.70;99.70;;;;;;5052378;28;20450;-63
2021/09/21 13:37:46;;;;;;;54.70;10.63;;;16.70;99.70;;;;;;5047135;28;20998;-63
2021/09/21 13:40:17;;;;;;;51.70;12.33;;;16.80;99.70;;;;;;5032710;28;20456;-62
2021/09/21 13:42:44;;;;;;;47.63;10.23;;;16.80;99.70;;;;;;5032964;28;20472;-59
2021/09/21 13:45:13;;;;;;;49.50;10.53;;;16.70;99.70;;;;;;5044181;28;20830;-61
2021/09/21 13:47:40;;;;;;;47.30;10.00;;;16.70;99.70;;;;;;5049039;28;20557;-56
2021/09/21 13:50:09;;;;;;;48.97;9.60;;;16.70;99.70;;;;;;5049346;28;20446;-63
2021/09/21 13:52:36;;;;;;;48.53;10.30;;;16.70;99.70;;;;;;5050057;28;20465;-64
2021/09/21 13:55:03;;;;;;;48.70;10.60;;;16.80;99.70;;;;;;5048672;28;20451;-64
2021/09/21 13:57:30;;;;;;;48.30;11.40;;;16.90;99.70;;;;;;5042417;28;21039;-63
2021/09/21 13:59:57;;;;;;;49.30;10.50;;;16.80;99.70;;;;;;5036905;28;20483;-61
2021/09/21 14:02:23;;;;;;;50.03;12.57;;;16.80;99.70;;;;;;5038990;28;20476;-62
2021/09/21 14:04:50;;;;;;;48.03;10.53;;;16.70;99.70;;;;;;5040933;28;20948;-64
2021/09/21 14:07:19;;;;;;;56.10;12.63;;;16.80;99.70;;;;;;5028285;28;20433;-62
2021/09/21 14:09:48;;;;;;;48.50;9.83;;;16.70;99.70;;;;;;5036091;28;20439;-63
2021/09/21 14:12:15;;;;;;;48.03;9.77;;;16.80;99.70;;;;;;5050078;28;20475;-63
2021/09/21 14:14:42;;;;;;;47.87;10.30;;;16.70;99.70;;;;;;5039394;28;20466;-63
2021/09/21 14:17:10;;;;;;;47.83;9.13;;;16.70;99.70;;;;;;5050697;28;20490;-62
2021/09/21 14:19:37;;;;;;;47.13;9.50;;;16.70;99.70;;;;;;5035059;28;20449;-62
2021/09/21 14:22:04;;;;;;;49.60;10.93;;;16.60;99.70;;;;;;5034053;28;20491;-66
2021/09/21 14:24:33;;;;;;;46.33;9.43;;;16.60;99.70;;;;;;5040119;28;20445;-60
2021/09/21 14:27:02;;;;;;;52.23;10.17;;;16.60;99.70;;;;;;5038566;28;20444;-63
2021/09/21 14:29:29;;;;;;;56.10;10.50;;;16.50;99.70;;;;;;5038375;28;20445;-62
2021/09/21 14:31:57;;;;;;;46.80;9.40;;;16.60;99.70;;;;;;5051712;28;20472;-63
2021/09/21 14:34:24;;;;;;;49.70;10.77;;;16.60;99.70;;;;;;5051155;28;20964;-62
2021/09/21 14:36:52;;;;;;;47.90;10.07;;;16.70;99.70;;;;;;5035743;28;20487;-59
2021/09/21 14:39:19;;;;;;;49.23;10.33;;;16.70;99.70;;;;;;5049920;28;20827;-63
2021/09/21 14:41:48;;;;;;;47.87;10.03;;;16.70;99.70;;;;;;5051065;28;20470;-63
2021/09/21 14:44:15;;;;;;;54.53;9.77;;;16.70;99.70;;;;;;5051499;28;20466;-62
2021/09/21 14:46:42;;;;;;;53.73;10.33;;;16.70;99.70;;;;;;5051089;28;20440;-63
2021/09/21 14:49:10;;;;;;;47.47;10.20;;;16.60;99.70;;;;;;5034143;28;20472;-63
2021/09/21 14:51:37;;;;;;;47.93;10.27;;;16.50;99.70;;;;;;5030647;28;20471;-63
2021/09/21 14:54:04;;;;;;;48.93;10.70;;;16.50;99.70;;;;;;5031570;28;20503;-63
2021/09/21 14:56:32;;;;;;;46.20;9.80;;;16.40;99.70;;;;;;5031137;28;20447;-62
2021/09/21 14:59:00;;;;;;;48.90;11.33;;;16.40;99.70;;;;;;5031118;28;20440;-63
2021/09/21 15:01:27;;;;;;;46.77;10.07;;;16.50;99.70;;;;;;5030858;28;20461;-63
2021/09/21 15:03:54;;;;;;;49.50;9.90;;;16.40;99.70;;;;;;5046348;28;20463;-63
2021/09/21 15:06:21;;;;;;;47.73;10.13;;;16.30;99.70;;;;;;5051024;28;20657;-62
2021/09/21 15:08:47;;;;;;;48.00;10.30;;;16.20;99.70;;;;;;5050841;28;20818;-63
2021/09/21 15:11:14;;;;;;;48.13;10.53;;;16.20;99.70;;;;;;5050677;28;20958;-62
2021/09/21 15:13:41;;;;;;;49.90;11.97;;;16.10;99.70;;;;;;5050882;28;20443;-62
2021/09/21 15:16:09;;;;;;;49.53;10.87;;;16.20;99.70;;;;;;5050542;28;20447;-63
2021/09/21 15:18:38;;;;;;;49.07;11.60;;;16.20;99.70;;;;;;5030516;28;21007;-63
2021/09/21 15:21:05;;;;;;;49.20;10.10;;;16.30;99.70;;;;;;5030865;28;20456;-63
2021/09/21 15:23:32;;;;;;;46.13;9.63;;;16.40;99.70;;;;;;5030509;28;20893;-62
2021/09/21 15:25:59;;;;;;;49.13;11.73;;;16.40;99.70;;;;;;5036254;28;20823;-63
2021/09/21 15:28:26;;;;;;;49.67;10.40;;;16.40;99.70;;;;;;5044810;28;20447;-63
2021/09/21 15:30:53;;;;;;;47.37;11.00;;;16.30;99.70;;;;;;5050182;28;21033;-61
2021/09/21 15:33:22;;;;;;;48.47;10.83;;;16.40;99.70;;;;;;5049767;28;20469;-63
2021/09/21 15:35:48;;;;;;;47.47;10.50;;;16.30;99.70;;;;;;5049792;28;20452;-62
2021/09/21 15:38:16;;;;;;;46.93;10.37;;;16.20;99.70;;;;;;5050458;28;20480;-64
2021/09/21 15:40:48;;;;;;;50.80;11.80;;;16.20;99.70;;;;;;5049348;28;20446;-63
2021/09/21 15:43:15;;;;;;;48.83;10.47;;;16.20;99.70;;;;;;5048585;28;20928;-65
2021/09/21 15:45:42;;;;;;;48.40;10.90;;;16.10;99.70;;;;;;5048417;28;20446;-64
2021/09/21 15:48:09;;;;;;;50.33;11.90;;;16.00;99.70;;;;;;5049572;28;20432;-65
2021/09/21 15:50:37;;;;;;;48.03;10.20;;;15.90;99.70;;;;;;5048141;28;20470;-64
2021/09/21 15:53:04;;;;;;;48.97;10.77;;;15.90;99.70;;;;;;5048335;28;20482;-65
2021/09/21 15:55:31;;;;;;;46.60;10.40;;;15.80;99.70;;;;;;5049464;28;20448;-64
2021/09/21 15:57:59;;;;;;;49.40;10.93;;;15.80;99.70;;;;;;5049912;28;20479;-65
2021/09/21 16:00:29;;;;;;;48.70;10.93;;;16.00;99.70;;;;;;5049966;28;20432;-65
2021/09/21 16:02:57;;;;;;;49.70;11.30;;;15.90;99.70;;;;;;5047117;28;20475;-65
2021/09/21 16:05:24;;;;;;;48.30;11.10;;;15.80;99.70;;;;;;5049855;28;20496;-65
2021/09/21 16:07:56;;;;;;;49.73;10.30;;;15.80;99.70;;;;;;5045643;28;20802;-64
2021/09/21 16:10:23;;;;;;;49.73;11.53;;;15.80;99.70;;;;;;5037668;28;20448;-64
2021/09/21 16:12:50;;;;;;;47.80;11.13;;;15.80;99.70;;;;;;5048703;28;20482;-62
2021/09/21 16:15:17;;;;;;;49.47;11.60;;;15.80;99.70;;;;;;5029935;28;20453;-64
2021/09/21 16:17:44;;;;;;;51.23;11.50;;;15.70;99.70;;;;;;5042435;28;20856;-64
2021/09/21 16:20:12;;;;;;;50.20;10.83;;;15.50;99.70;;;;;;5046898;28;20448;-61
2021/09/21 16:22:39;;;;;;;51.47;11.33;;;15.30;99.70;;;;;;5047486;28;20471;-64
2021/09/21 16:25:11;;;;;;;49.13;10.63;;;15.10;99.70;;;;;;5031725;28;20467;-66
2021/09/21 16:27:38;;;;;;;50.77;12.53;;;15.00;99.70;;;;;;5049986;28;20480;-65
2021/09/21 16:30:06;;;;;;;49.90;12.20;;;14.90;99.70;;;;;;5049439;28;20444;-66
2021/09/21 16:32:33;;;;;;;52.57;12.63;;;14.80;99.70;;;;;;5034891;28;20483;-63